createdAt,value
2019-04-19T00:02:38.132Z,98670.97
2019-04-19T00:08:32.485Z,98673.45
2019-04-19T00:11:15.540Z,98678.04
2019-04-19T00:13:42.994Z,98674.92
2019-04-19T00:16:19.519Z,98671.59
2019-04-19T00:19:33.067Z,98674.45
2019-04-19T00:22:24.934Z,98671.30
2019-04-19T00:24:27.313Z,98667.53
2019-04-19T00:26:57.044Z,98671.69
2019-04-19T00:29:37.489Z,98664.55
2019-04-19T00:34:44.340Z,98663.28
2019-04-19T00:37:33.817Z,98661.66
2019-04-19T00:41:00.190Z,98661.73
2019-04-19T00:44:02.427Z,98656.12
2019-04-19T00:49:16.222Z,98662.09
2019-04-19T00:52:12.419Z,98657.28
2019-04-19T00:55:00.184Z,98657.55
2019-04-19T00:57:36.085Z,98658.91
2019-04-19T01:00:01.956Z,98660.86
2019-04-19T01:02:43.020Z,98668.15
2019-04-19T01:05:18.148Z,98661.98
2019-04-19T01:07:51.575Z,98669.58
2019-04-19T01:10:40.298Z,98667.47
2019-04-19T01:13:13.896Z,98669.67
2019-04-19T01:15:53.067Z,98672.31
2019-04-19T01:18:28.832Z,98670.74
2019-04-19T01:20:52.788Z,98655.73
2019-04-19T01:23:22.901Z,98663.76
2019-04-19T01:26:15.117Z,98662.34
2019-04-19T01:28:58.800Z,98669.22
2019-04-19T01:31:30.594Z,98673.41
2019-04-19T01:34:14.713Z,98675.51
2019-04-19T01:36:48.436Z,98667.31
2019-04-19T01:39:37.071Z,98677.03
2019-04-19T01:42:18.155Z,98673.05
2019-04-19T01:50:50.935Z,98677.39
2019-04-19T01:53:43.475Z,98673.06
2019-04-19T01:56:08.482Z,98676.88
2019-04-19T01:58:44.698Z,98676.57
2019-04-19T02:01:19.218Z,98676.87
2019-04-19T02:03:52.423Z,98676.56
2019-04-19T02:06:33.794Z,98681.28
2019-04-19T02:12:22.231Z,98679.37
2019-04-19T02:14:50.619Z,98677.02
2019-04-19T02:17:23.159Z,98671.08
2019-04-19T02:20:04.102Z,98679.27
2019-04-19T02:22:39.151Z,98681.55
2019-04-19T02:25:19.901Z,98682.13
2019-04-19T02:27:51.444Z,98680.10
2019-04-19T02:30:33.947Z,98683.06
2019-04-19T02:33:29.971Z,98686.30
2019-04-19T02:36:12.891Z,98686.58
2019-04-19T02:38:46.679Z,98684.44
2019-04-19T02:44:17.393Z,98688.78
2019-04-19T02:47:01.149Z,98690.71
2019-04-19T02:49:37.116Z,98701.62
2019-04-19T02:52:29.062Z,98698.42
2019-04-19T02:55:10.254Z,98704.58
2019-04-19T02:58:12.593Z,98710.12
2019-04-19T03:01:32.403Z,98712.05
2019-04-19T03:03:39.485Z,98710.67
2019-04-19T03:06:13.327Z,98718.88
2019-04-19T03:08:35.490Z,98717.92
2019-04-19T03:11:33.541Z,98719.19
2019-04-19T03:14:05.280Z,98719.95
2019-04-19T03:16:46.847Z,98719.59
2019-04-19T03:19:19.082Z,98723.41
2019-04-19T03:22:23.267Z,98724.58
2019-04-19T03:25:00.829Z,98730.03
2019-04-19T03:27:28.472Z,98727.69
2019-04-19T03:30:17.210Z,98730.30
2019-04-19T03:35:27.094Z,98741.60
2019-04-19T03:38:08.854Z,98740.14
2019-04-19T03:40:39.138Z,98741.80
2019-04-19T03:43:54.386Z,98744.55
2019-04-19T03:46:31.761Z,98741.72
2019-04-19T03:49:08.611Z,98742.35
2019-04-19T03:51:51.882Z,98746.70
2019-04-19T03:54:17.514Z,98746.35
2019-04-19T03:56:59.231Z,98753.05
2019-04-19T04:02:02.971Z,98755.62
2019-04-19T04:04:59.477Z,98761.48
2019-04-19T04:07:31.167Z,98759.66
2019-04-19T04:13:59.923Z,98762.70
2019-04-19T04:16:40.719Z,98761.03
2019-04-19T04:19:12.487Z,98766.89
2019-04-19T04:21:51.031Z,98766.61
2019-04-19T04:24:32.717Z,98769.45
2019-04-19T04:27:09.666Z,98770.81
2019-04-19T04:29:44.274Z,98772.48
2019-04-19T04:32:46.714Z,98776.77
2019-04-19T04:35:25.653Z,98776.45
2019-04-19T04:38:02.784Z,98785.62
2019-04-19T04:40:27.731Z,98785.27
2019-04-19T04:46:38.859Z,98787.98
2019-04-19T04:52:21.236Z,98793.80
2019-04-19T04:55:07.232Z,98800.66
2019-04-19T04:57:44.952Z,98801.78
2019-04-19T05:00:34.938Z,98810.38
2019-04-19T05:03:16.750Z,98812.29
2019-04-19T05:06:02.803Z,98816.17
2019-04-19T05:08:35.157Z,98818.45
2019-04-19T05:11:15.001Z,98818.83
2019-04-19T05:13:54.446Z,98820.08
2019-04-19T05:16:46.808Z,98822.19
2019-04-19T05:19:05.266Z,98834.29
2019-04-19T05:21:42.644Z,98833.57
2019-04-19T05:24:21.108Z,98836.44
2019-04-19T05:27:03.784Z,98836.87
2019-04-19T05:29:29.738Z,98841.30
2019-04-19T05:32:11.623Z,98837.89
2019-04-19T05:34:58.276Z,98840.63
2019-04-19T05:37:52.665Z,98846.23
2019-04-19T05:40:43.363Z,98844.41
2019-04-19T05:43:57.273Z,98843.27
2019-04-19T05:46:21.203Z,98845.69
2019-04-19T05:48:48.177Z,98851.13
2019-04-19T05:51:42.381Z,98846.19
2019-04-19T05:53:55.089Z,98845.58
2019-04-19T05:56:30.955Z,98843.91
2019-04-19T05:59:11.015Z,98843.40
2019-04-19T06:02:05.435Z,98847.95
2019-04-19T06:04:48.247Z,98842.61
2019-04-19T06:07:24.487Z,98845.81
2019-04-19T06:09:41.001Z,98850.95
2019-04-19T06:12:21.315Z,98848.27
2019-04-19T06:18:13.291Z,98849.09
2019-04-19T06:24:10.363Z,98847.78
2019-04-19T06:29:39.444Z,98849.86
2019-04-19T06:32:12.603Z,98854.00
2019-04-19T06:34:47.578Z,98858.58
2019-04-19T06:37:10.160Z,98852.30
2019-04-19T06:39:43.804Z,98860.72
2019-04-19T06:42:15.192Z,98867.25
2019-04-19T06:48:55.246Z,98859.33
2019-04-19T06:51:34.748Z,98865.11
2019-04-19T06:54:06.006Z,98870.86
2019-04-19T06:56:41.658Z,98871.89
2019-04-19T07:02:15.973Z,98871.90
2019-04-19T07:04:54.289Z,98871.73
2019-04-19T07:08:27.450Z,98870.73
2019-04-19T07:10:50.257Z,98872.95
2019-04-19T07:13:21.531Z,98873.00
2019-04-19T07:16:15.468Z,98861.54
2019-04-19T07:18:51.094Z,98861.54
2019-04-19T07:21:29.074Z,98877.62
2019-04-19T07:24:28.204Z,98879.20
2019-04-19T07:26:54.715Z,98878.17
2019-04-19T07:29:12.867Z,98882.13
2019-04-19T07:31:43.047Z,98876.01
2019-04-19T07:35:05.763Z,98888.64
2019-04-19T07:37:58.837Z,98892.47
2019-04-19T07:40:45.849Z,98887.11
2019-04-19T07:43:10.579Z,98887.11
2019-04-19T07:51:12.917Z,98903.66
2019-04-19T07:53:57.227Z,98911.48
2019-04-19T07:57:00.540Z,98911.98
2019-04-19T07:59:49.870Z,98897.34
2019-04-19T08:03:01.567Z,98897.39
2019-04-19T08:05:46.566Z,98897.39
2019-04-19T08:15:59.676Z,98915.63
2019-04-19T08:29:40.793Z,98923.55
2019-04-19T08:32:13.341Z,98919.35
2019-04-19T08:34:43.191Z,98901.84
2019-04-19T08:37:39.860Z,98926.53
2019-04-19T08:41:08.273Z,98923.27
2019-04-19T08:43:47.379Z,98924.29
2019-04-19T08:46:25.940Z,98921.34
2019-04-19T08:49:22.778Z,98928.77
2019-04-19T08:52:28.725Z,98924.90
2019-04-19T08:55:19.481Z,98930.34
2019-04-19T08:57:37.702Z,98926.69
2019-04-19T09:03:58.608Z,98924.14
2019-04-19T09:07:15.914Z,98929.27
2019-04-19T09:09:00.857Z,98927.15
2019-04-19T09:11:52.367Z,98926.75
2019-04-19T09:14:27.622Z,98932.09
2019-04-19T09:17:02.557Z,98932.63
2019-04-19T09:19:58.036Z,98926.19
2019-04-19T09:22:09.218Z,98925.00
2019-04-19T09:24:41.387Z,98928.02
2019-04-19T09:28:11.385Z,98928.03
2019-04-19T09:33:09.799Z,98927.44
2019-04-19T09:36:00.663Z,98934.27
2019-04-19T09:39:19.067Z,98933.22
2019-04-19T09:41:50.082Z,98931.88
2019-04-19T09:44:30.282Z,98924.48
2019-04-19T09:46:59.653Z,98930.62
2019-04-19T09:49:45.203Z,98922.72
2019-04-19T09:52:44.371Z,98928.52
2019-04-19T09:55:21.546Z,98923.27
2019-04-19T09:57:52.870Z,98918.86
2019-04-19T10:03:40.108Z,98912.61
2019-04-19T10:06:09.169Z,98910.63
2019-04-19T10:08:38.446Z,98910.26
2019-04-19T10:11:10.220Z,98912.84
2019-04-19T10:13:44.092Z,98908.90
2019-04-19T10:16:32.682Z,98901.23
2019-04-19T10:19:06.197Z,98909.94
2019-04-19T10:24:51.296Z,98898.67
2019-04-19T10:30:38.883Z,98904.16
2019-04-19T10:36:18.186Z,98901.24
2019-04-19T10:38:59.299Z,98901.05
2019-04-19T10:41:34.374Z,98900.59
2019-04-19T10:44:18.373Z,98903.87
2019-04-19T10:46:47.399Z,98900.11
2019-04-19T10:49:44.248Z,98896.16
2019-04-19T10:52:33.142Z,98897.50
2019-04-19T10:55:08.716Z,98896.62
2019-04-19T10:57:39.062Z,98896.80
2019-04-19T11:00:19.590Z,98896.28
2019-04-19T11:02:56.860Z,98890.41
2019-04-19T11:08:12.716Z,98889.80
2019-04-19T11:11:03.454Z,98885.85
2019-04-19T11:13:52.395Z,98883.48
2019-04-19T11:16:21.783Z,98887.98
2019-04-19T11:18:51.119Z,98892.59
2019-04-19T11:21:20.778Z,98884.84
2019-04-19T11:23:50.110Z,98881.99
2019-04-19T11:26:19.467Z,98882.52
2019-04-19T11:28:49.212Z,98886.11
2019-04-19T11:37:20.791Z,98873.83
2019-04-19T11:39:50.935Z,98869.18
2019-04-19T11:42:27.515Z,98872.34
2019-04-19T11:45:03.759Z,98868.25
2019-04-19T11:47:40.757Z,98870.41
2019-04-19T11:50:21.841Z,98872.66
2019-04-19T11:53:10.649Z,98871.38
2019-04-19T11:56:00.332Z,98873.28
2019-04-19T12:03:56.312Z,98871.43
2019-04-19T12:06:58.652Z,98870.98
2019-04-19T12:09:28.021Z,98877.44
2019-04-19T12:11:58.206Z,98864.23
2019-04-19T12:14:34.442Z,98872.06
2019-04-19T12:17:11.093Z,98870.36
2019-04-19T12:19:53.801Z,98876.53
2019-04-19T12:22:23.372Z,98871.93
2019-04-19T12:24:55.118Z,98867.04
2019-04-19T12:27:29.726Z,98866.20
2019-04-19T12:33:27.007Z,98865.59
2019-04-19T12:36:03.248Z,98867.71
2019-04-19T12:38:39.812Z,98862.58
2019-04-19T12:41:16.262Z,98861.76
2019-04-19T12:43:52.248Z,98866.89
2019-04-19T12:46:21.745Z,98858.53
2019-04-19T12:48:58.527Z,98856.73
2019-04-19T12:51:28.079Z,98854.39
2019-04-19T12:53:58.229Z,98854.05
2019-04-19T12:56:33.996Z,98851.59
2019-04-19T12:59:11.614Z,98849.83
2019-04-19T13:02:06.265Z,98841.55
2019-04-19T13:07:31.257Z,98844.28
2019-04-19T13:10:00.569Z,98841.00
2019-04-19T13:12:30.688Z,98839.78
2019-04-19T13:15:32.233Z,98834.56
2019-04-19T13:18:07.910Z,98833.38
2019-04-19T13:20:38.860Z,98836.18
2019-04-19T13:23:28.371Z,98832.95
2019-04-19T13:26:23.257Z,98836.88
2019-04-19T13:28:53.443Z,98831.39
2019-04-19T13:31:40.938Z,98823.45
2019-04-19T13:34:11.478Z,98825.32
2019-04-19T13:37:07.257Z,98826.46
2019-04-19T13:40:02.065Z,98816.16
2019-04-19T13:45:31.340Z,98816.95
2019-04-19T13:48:07.374Z,98815.45
2019-04-19T13:50:39.488Z,98809.93
2019-04-19T13:53:26.854Z,98802.88
2019-04-19T13:55:56.902Z,98809.57
2019-04-19T13:58:47.525Z,98805.67
2019-04-19T14:01:22.739Z,98811.19
2019-04-19T14:03:53.175Z,98801.77
2019-04-19T14:06:42.414Z,98802.51
2019-04-19T14:12:00.822Z,98798.47
2019-04-19T14:14:50.821Z,98798.28
2019-04-19T14:17:27.466Z,98803.67
2019-04-19T14:20:27.642Z,98802.34
2019-04-19T14:22:45.684Z,98801.34
2019-04-19T14:25:55.210Z,98795.91
2019-04-19T14:28:25.315Z,98788.50
2019-04-19T14:31:14.727Z,98791.92
2019-04-19T14:33:45.136Z,98786.12
2019-04-19T14:36:34.542Z,98777.02
2019-04-19T14:42:27.893Z,98779.16
2019-04-19T14:45:56.133Z,98783.42
2019-04-19T14:48:39.931Z,98782.97
2019-04-19T14:51:21.833Z,98785.45
2019-04-19T14:53:49.710Z,98778.16
2019-04-19T14:56:25.982Z,98782.66
2019-04-19T14:59:01.828Z,98786.89
2019-04-19T15:07:07.706Z,98776.27
2019-04-19T15:09:57.505Z,98781.37
2019-04-19T15:12:26.904Z,98779.89
2019-04-19T15:14:57.583Z,98779.03
2019-04-19T15:17:33.115Z,98777.64
2019-04-19T15:23:29.745Z,98774.10
2019-04-19T15:26:00.598Z,98772.88
2019-04-19T15:28:37.138Z,98771.31
2019-04-19T15:31:12.809Z,98770.45
2019-04-19T15:33:42.650Z,98782.16
2019-04-19T15:36:33.438Z,98772.77
2019-04-19T15:41:50.562Z,98767.11
2019-04-19T15:44:40.491Z,98775.78
2019-04-19T15:47:30.737Z,98775.17
2019-04-19T15:53:29.860Z,98777.19
2019-04-19T15:56:06.295Z,98771.42
2019-04-19T15:58:36.401Z,98773.22
2019-04-19T16:01:46.110Z,98775.52
2019-04-19T16:04:41.823Z,98772.59
2019-04-19T16:07:37.790Z,98774.52
2019-04-19T16:10:32.891Z,98776.94
2019-04-19T16:15:42.634Z,98779.82
2019-04-19T16:18:12.041Z,98776.22
2019-04-19T16:20:43.995Z,98779.58
2019-04-19T16:23:32.199Z,98780.10
2019-04-19T16:26:21.644Z,98777.27
2019-04-19T16:28:51.632Z,98777.82
2019-04-19T16:31:42.329Z,98786.20
2019-04-19T16:34:18.321Z,98774.86
2019-04-19T16:36:58.380Z,98782.14
2019-04-19T16:39:35.504Z,98781.12
2019-04-19T16:42:10.999Z,98776.77
2019-04-19T16:44:52.005Z,98775.63
2019-04-19T16:47:29.137Z,98777.88
2019-04-19T16:50:08.488Z,98787.94
2019-04-19T16:52:38.698Z,98781.59
2019-04-19T16:55:27.944Z,98779.73
2019-04-19T16:57:58.732Z,98783.32
2019-04-19T17:00:47.474Z,98786.81
2019-04-19T17:03:17.489Z,98783.11
2019-04-19T17:06:07.178Z,98782.00
2019-04-19T17:08:36.651Z,98779.66
2019-04-19T17:11:05.987Z,98782.90
2019-04-19T17:13:42.707Z,98781.55
2019-04-19T17:22:03.453Z,98785.09
2019-04-19T17:24:45.158Z,98778.88
2019-04-19T17:27:35.285Z,98786.11
2019-04-19T17:30:32.443Z,98788.67
2019-04-19T17:35:44.161Z,98786.64
2019-04-19T17:38:24.984Z,98790.03
2019-04-19T17:40:50.548Z,98793.75
2019-04-19T17:43:45.914Z,98792.92
2019-04-19T17:46:15.282Z,98801.83
2019-04-19T17:48:44.609Z,98800.16
2019-04-19T17:51:13.954Z,98806.20
2019-04-19T17:53:46.975Z,98805.84
2019-04-19T17:56:37.370Z,98808.12
2019-04-19T17:59:48.045Z,98810.11
2019-04-19T18:02:37.148Z,98811.55
2019-04-19T18:05:13.948Z,98820.08
2019-04-19T18:07:52.020Z,98819.42
2019-04-19T18:10:34.907Z,98820.55
2019-04-19T18:13:03.474Z,98824.45
2019-04-19T18:15:34.883Z,98828.20
2019-04-19T18:18:23.032Z,98827.42
2019-04-19T18:20:55.705Z,98828.91
2019-04-19T18:23:49.407Z,98838.66
2019-04-19T18:26:29.668Z,98833.97
2019-04-19T18:29:01.029Z,98838.23
2019-04-19T18:31:42.069Z,98843.29
2019-04-19T18:37:53.366Z,98847.77
2019-04-19T18:40:29.099Z,98855.44
2019-04-19T18:43:11.265Z,98861.75
2019-04-19T18:45:49.903Z,98856.55
2019-04-19T18:48:25.080Z,98859.94
2019-04-19T18:54:38.001Z,98867.02
2019-04-19T18:57:09.662Z,98870.04
2019-04-19T18:59:51.082Z,98874.73
2019-04-19T19:02:23.848Z,98874.48
2019-04-19T19:05:02.087Z,98877.07
2019-04-19T19:07:34.774Z,98877.89
2019-04-19T19:13:12.225Z,98881.39
2019-04-19T19:15:55.930Z,98882.21
2019-04-19T19:18:35.054Z,98889.53
2019-04-19T19:21:08.392Z,98886.97
2019-04-19T19:23:57.330Z,98886.03
2019-04-19T19:26:46.825Z,98888.96
2019-04-19T19:29:02.364Z,98888.84
2019-04-19T19:34:43.903Z,98894.05
2019-04-19T19:37:19.246Z,98896.37
2019-04-19T19:40:09.615Z,98898.13
2019-04-19T19:45:50.416Z,98897.38
2019-04-19T19:51:20.388Z,98892.84
2019-04-19T19:54:22.231Z,98901.75
2019-04-19T19:59:15.855Z,98902.55
2019-04-19T20:01:58.646Z,98916.70
2019-04-19T20:04:27.078Z,98905.92
2019-04-19T20:07:11.162Z,98910.84
2019-04-19T20:09:51.348Z,98916.99
2019-04-19T20:12:29.349Z,98914.45
2019-04-19T20:18:03.014Z,98916.83
2019-04-19T20:20:44.239Z,98916.55
2019-04-19T20:23:24.227Z,98914.11
2019-04-19T20:26:10.862Z,98916.80
2019-04-19T20:28:36.110Z,98917.02
2019-04-19T20:31:08.968Z,98916.77
2019-04-19T20:33:50.147Z,98918.67
2019-04-19T20:36:21.120Z,98921.07
2019-04-19T20:39:01.318Z,98914.84
2019-04-19T20:41:37.386Z,98915.72
2019-04-19T20:44:27.615Z,98916.69
2019-04-19T20:46:46.324Z,98914.16
2019-04-19T20:49:28.681Z,98917.03
2019-04-19T20:52:33.689Z,98917.43
2019-04-19T20:55:16.596Z,98920.08
2019-04-19T21:00:42.258Z,98913.25
2019-04-19T21:03:15.689Z,98912.61
2019-04-19T21:06:02.086Z,98915.31
2019-04-19T21:08:44.265Z,98918.53
2019-04-19T21:11:15.112Z,98915.26
2019-04-19T21:13:56.731Z,98912.81
2019-04-19T21:16:29.069Z,98920.83
2019-04-19T21:19:07.449Z,98919.69
2019-04-19T21:21:45.558Z,98922.30
2019-04-19T21:24:22.638Z,98962.39
2019-04-19T21:27:05.866Z,98920.74
2019-04-19T21:29:36.729Z,98920.22
2019-04-19T21:32:17.636Z,98920.59
2019-04-19T21:34:48.196Z,98931.34
2019-04-19T21:37:31.595Z,98934.61
2019-04-19T21:40:16.583Z,98923.27
2019-04-19T21:42:49.331Z,98923.27
2019-04-19T21:45:41.152Z,98920.39
2019-04-19T21:48:18.055Z,98917.05
2019-04-19T21:51:18.558Z,98910.44
2019-04-19T21:53:51.708Z,98910.44
2019-04-19T21:56:49.862Z,98927.09
2019-04-19T21:59:38.692Z,98927.09
2019-04-19T22:02:25.644Z,98924.72
2019-04-19T22:05:09.591Z,98926.56
2019-04-19T22:07:47.780Z,98926.56
2019-04-19T22:10:24.807Z,98934.78
2019-04-19T22:13:02.184Z,98928.34
2019-04-19T22:15:46.127Z,98920.08
2019-04-19T22:18:15.243Z,98917.09
2019-04-19T22:20:56.135Z,98926.52
2019-04-19T22:23:28.749Z,98910.42
2019-04-19T22:26:30.529Z,98925.55
2019-04-19T22:29:01.646Z,98925.55
2019-04-19T22:31:38.032Z,98920.89
2019-04-19T22:34:28.444Z,98926.37
2019-04-19T22:37:01.310Z,98926.37
2019-04-19T22:39:50.693Z,98927.99
2019-04-19T22:42:47.511Z,98914.95
2019-04-19T22:45:23.569Z,98911.27
2019-04-19T22:47:53.212Z,98911.27
2019-04-19T22:50:47.087Z,98924.00
2019-04-19T22:53:24.046Z,98924.00
2019-04-19T22:56:34.333Z,98934.11
2019-04-19T22:59:11.668Z,98934.11
2019-04-19T23:04:36.993Z,98931.66
2019-04-19T23:07:09.874Z,98934.06
2019-04-19T23:09:56.836Z,98933.08
2019-04-19T23:12:39.663Z,98933.64
2019-04-19T23:15:15.688Z,98933.64
2019-04-19T23:18:14.390Z,98936.73
2019-04-19T23:20:45.518Z,98936.73
2019-04-19T23:23:21.827Z,98938.56
2019-04-19T23:26:19.661Z,98933.27
2019-04-19T23:28:44.227Z,98942.63
2019-04-19T23:31:19.387Z,98941.23
2019-04-19T23:34:01.110Z,98941.86
2019-04-19T23:36:31.231Z,98946.52
2019-04-19T23:39:11.027Z,98950.53
2019-04-19T23:41:44.510Z,98942.55
2019-04-19T23:44:25.339Z,98941.80
2019-04-19T23:47:12.656Z,98937.89
2019-04-19T23:49:47.322Z,98937.89
2019-04-19T23:52:19.204Z,98939.41
2019-04-19T23:54:56.567Z,98937.79
2019-04-19T23:57:39.508Z,98932.05
